sensor_id;sensor_type;location;lat;lon;timestamp;pressure;altitude;pressure_sealevel;temperature;humidity
1832;BME280;1680;48.106;11.708;2023-02-07T00:00:49;97256.75;;;-1.94;94.09
1832;BME280;1680;48.106;11.708;2023-02-07T00:03:17;97260.66;;;-2.01;94.84
1832;BME280;1680;48.106;11.708;2023-02-07T00:05:44;97259.44;;;-2.08;94.89
1832;BME280;1680;48.106;11.708;2023-02-07T00:08:11;97257.28;;;-2.14;95.58
1832;BME280;1680;48.106;11.708;2023-02-07T00:10:41;97253.69;;;-2.12;95.27
1832;BME280;1680;48.106;11.708;2023-02-07T00:13:08;97258.00;;;-2.12;95.66
1832;BME280;1680;48.106;11.708;2023-02-07T00:15:35;97215.69;;;-2.32;95.58
1832;BME280;1680;48.106;11.708;2023-02-07T00:18:04;97245.25;;;-2.26;96.24
1832;BME280;1680;48.106;11.708;2023-02-07T00:20:31;97240.56;;;-2.32;96.60
1832;BME280;1680;48.106;11.708;2023-02-07T00:22:59;97247.63;;;-2.36;97.02
1832;BME280;1680;48.106;11.708;2023-02-07T00:25:26;97238.38;;;-2.38;96.89
1832;BME280;1680;48.106;11.708;2023-02-07T00:27:54;97249.19;;;-2.33;97.99
1832;BME280;1680;48.106;11.708;2023-02-07T00:30:21;97246.72;;;-2.22;97.31
1832;BME280;1680;48.106;11.708;2023-02-07T00:32:48;97238.28;;;-2.37;96.92
1832;BME280;1680;48.106;11.708;2023-02-07T00:35:17;97231.91;;;-2.44;97.49
1832;BME280;1680;48.106;11.708;2023-02-07T00:37:45;97223.59;;;-2.47;97.80
1832;BME280;1680;48.106;11.708;2023-02-07T00:40:12;97215.88;;;-2.35;97.33
1832;BME280;1680;48.106;11.708;2023-02-07T00:42:39;97219.38;;;-2.48;97.42
1832;BME280;1680;48.106;11.708;2023-02-07T00:45:08;97221.44;;;-2.53;98.00
1832;BME280;1680;48.106;11.708;2023-02-07T00:47:35;97220.00;;;-2.45;97.88
1832;BME280;1680;48.106;11.708;2023-02-07T00:50:03;97211.56;;;-2.59;97.97
1832;BME280;1680;48.106;11.708;2023-02-07T00:52:32;97213.13;;;-2.57;98.17
1832;BME280;1680;48.106;11.708;2023-02-07T00:54:59;97213.41;;;-2.61;98.69
1832;BME280;1680;48.106;11.708;2023-02-07T00:57:27;97223.88;;;-2.64;98.56
1832;BME280;1680;48.106;11.708;2023-02-07T00:59:54;97212.38;;;-2.71;98.41
1832;BME280;1680;48.106;11.708;2023-02-07T01:02:21;97213.28;;;-2.72;98.85
1832;BME280;1680;48.106;11.708;2023-02-07T01:04:49;97214.31;;;-2.62;98.40
1832;BME280;1680;48.106;11.708;2023-02-07T01:07:16;97216.59;;;-2.70;98.65
1832;BME280;1680;48.106;11.708;2023-02-07T01:09:45;97232.50;;;-2.78;97.91
1832;BME280;1680;48.106;11.708;2023-02-07T01:12:12;97224.25;;;-2.95;97.60
1832;BME280;1680;48.106;11.708;2023-02-07T01:14:40;97230.41;;;-2.85;98.71
1832;BME280;1680;48.106;11.708;2023-02-07T01:17:07;97227.13;;;-2.87;98.46
1832;BME280;1680;48.106;11.708;2023-02-07T01:19:34;97231.53;;;-2.89;98.22
1832;BME280;1680;48.106;11.708;2023-02-07T01:22:02;97235.34;;;-2.82;97.45
1832;BME280;1680;48.106;11.708;2023-02-07T01:24:30;97242.66;;;-2.64;96.96
1832;BME280;1680;48.106;11.708;2023-02-07T01:27:02;97247.88;;;-2.78;97.27
1832;BME280;1680;48.106;11.708;2023-02-07T01:29:30;97240.31;;;-2.79;96.97
1832;BME280;1680;48.106;11.708;2023-02-07T01:31:57;97259.19;;;-2.68;96.88
1832;BME280;1680;48.106;11.708;2023-02-07T01:34:25;97243.56;;;-2.77;96.49
1832;BME280;1680;48.106;11.708;2023-02-07T01:36:52;97259.56;;;-2.86;96.18
1832;BME280;1680;48.106;11.708;2023-02-07T01:39:21;97255.16;;;-2.84;96.98
1832;BME280;1680;48.106;11.708;2023-02-07T01:41:48;97248.56;;;-3.00;97.04
1832;BME280;1680;48.106;11.708;2023-02-07T01:47:22;97232.75;;;-2.94;96.47
1832;BME280;1680;48.106;11.708;2023-02-07T01:49:52;97224.44;;;-2.98;96.64
1832;BME280;1680;48.106;11.708;2023-02-07T01:52:25;97245.19;;;-2.88;96.34
1832;BME280;1680;48.106;11.708;2023-02-07T01:54:58;97243.13;;;-2.96;96.32
1832;BME280;1680;48.106;11.708;2023-02-07T01:57:27;97250.59;;;-3.05;95.65
1832;BME280;1680;48.106;11.708;2023-02-07T01:59:56;97250.66;;;-3.07;97.18
1832;BME280;1680;48.106;11.708;2023-02-07T02:02:27;97245.75;;;-3.10;95.77
1832;BME280;1680;48.106;11.708;2023-02-07T02:04:56;97251.69;;;-3.09;96.57
1832;BME280;1680;48.106;11.708;2023-02-07T02:07:26;97255.09;;;-3.09;96.71
1832;BME280;1680;48.106;11.708;2023-02-07T02:09:54;97255.09;;;-3.09;96.18
1832;BME280;1680;48.106;11.708;2023-02-07T02:15:32;97268.13;;;-3.12;96.79
1832;BME280;1680;48.106;11.708;2023-02-07T02:18:18;97269.03;;;-3.13;96.63
1832;BME280;1680;48.106;11.708;2023-02-07T02:24:30;97277.09;;;-3.19;96.08
1832;BME280;1680;48.106;11.708;2023-02-07T02:27:08;97276.81;;;-3.14;95.26
1832;BME280;1680;48.106;11.708;2023-02-07T02:30:03;97281.75;;;-3.11;95.41
1832;BME280;1680;48.106;11.708;2023-02-07T02:32:57;97273.63;;;-3.18;95.20
1832;BME280;1680;48.106;11.708;2023-02-07T02:35:34;97270.06;;;-3.15;95.90
1832;BME280;1680;48.106;11.708;2023-02-07T02:38:12;97269.84;;;-3.12;94.85
1832;BME280;1680;48.106;11.708;2023-02-07T02:40:48;97272.28;;;-3.23;95.34
1832;BME280;1680;48.106;11.708;2023-02-07T02:43:23;97273.81;;;-3.21;94.81
1832;BME280;1680;48.106;11.708;2023-02-07T02:45:55;97265.78;;;-3.29;95.75
1832;BME280;1680;48.106;11.708;2023-02-07T02:48:25;97273.53;;;-3.43;95.93
1832;BME280;1680;48.106;11.708;2023-02-07T02:50:54;97270.06;;;-3.42;96.24
1832;BME280;1680;48.106;11.708;2023-02-07T02:53:21;97275.97;;;-3.41;96.34
1832;BME280;1680;48.106;11.708;2023-02-07T02:56:00;97275.25;;;-3.43;96.05
1832;BME280;1680;48.106;11.708;2023-02-07T02:58:46;97286.53;;;-3.46;95.79
1832;BME280;1680;48.106;11.708;2023-02-07T03:01:22;97290.59;;;-3.56;95.93
1832;BME280;1680;48.106;11.708;2023-02-07T03:04:02;97289.84;;;-3.58;95.64
1832;BME280;1680;48.106;11.708;2023-02-07T03:06:44;97302.28;;;-3.52;95.63
1832;BME280;1680;48.106;11.708;2023-02-07T03:09:21;97278.97;;;-3.61;95.50
1832;BME280;1680;48.106;11.708;2023-02-07T03:11:56;97269.84;;;-3.79;96.01
1832;BME280;1680;48.106;11.708;2023-02-07T03:14:30;97292.97;;;-3.67;97.25
1832;BME280;1680;48.106;11.708;2023-02-07T03:17:08;97296.63;;;-3.57;97.18
1832;BME280;1680;48.106;11.708;2023-02-07T03:19:46;97302.28;;;-3.38;96.61
1832;BME280;1680;48.106;11.708;2023-02-07T03:22:18;97292.91;;;-3.25;95.04
1832;BME280;1680;48.106;11.708;2023-02-07T03:24:49;97274.41;;;-3.30;94.88
1832;BME280;1680;48.106;11.708;2023-02-07T03:27:19;97277.56;;;-3.39;95.18
1832;BME280;1680;48.106;11.708;2023-02-07T03:29:51;97268.69;;;-3.47;95.38
1832;BME280;1680;48.106;11.708;2023-02-07T03:32:23;97269.44;;;-3.59;95.66
1832;BME280;1680;48.106;11.708;2023-02-07T03:34:57;97274.66;;;-3.61;96.27
1832;BME280;1680;48.106;11.708;2023-02-07T03:37:30;97266.97;;;-3.61;96.11
1832;BME280;1680;48.106;11.708;2023-02-07T03:40:00;97268.72;;;-3.61;96.21
1832;BME280;1680;48.106;11.708;2023-02-07T03:42:30;97265.31;;;-3.62;95.83
1832;BME280;1680;48.106;11.708;2023-02-07T03:44:59;97254.91;;;-3.73;96.16
1832;BME280;1680;48.106;11.708;2023-02-07T03:47:28;97256.28;;;-3.67;95.85
1832;BME280;1680;48.106;11.708;2023-02-07T03:49:56;97259.66;;;-3.67;94.94
1832;BME280;1680;48.106;11.708;2023-02-07T03:52:24;97190.19;;;-4.16;95.79
1832;BME280;1680;48.106;11.708;2023-02-07T03:54:51;97249.16;;;-3.76;94.87
1832;BME280;1680;48.106;11.708;2023-02-07T03:57:18;97265.06;;;-3.85;95.59
1832;BME280;1680;48.106;11.708;2023-02-07T03:59:46;97273.06;;;-3.89;95.83
1832;BME280;1680;48.106;11.708;2023-02-07T04:02:13;97272.69;;;-4.11;96.19
1832;BME280;1680;48.106;11.708;2023-02-07T04:04:40;97289.53;;;-4.07;96.57
1832;BME280;1680;48.106;11.708;2023-02-07T04:07:10;97315.59;;;-4.01;97.11
1832;BME280;1680;48.106;11.708;2023-02-07T04:09:37;97303.78;;;-4.03;97.60
1832;BME280;1680;48.106;11.708;2023-02-07T04:12:05;97290.06;;;-3.88;96.94
1832;BME280;1680;48.106;11.708;2023-02-07T04:14:32;97299.56;;;-3.77;95.30
1832;BME280;1680;48.106;11.708;2023-02-07T04:16:59;97292.47;;;-3.99;96.32
1832;BME280;1680;48.106;11.708;2023-02-07T04:19:27;97279.66;;;-3.99;98.12
1832;BME280;1680;48.106;11.708;2023-02-07T04:21:54;97269.47;;;-4.01;97.99
1832;BME280;1680;48.106;11.708;2023-02-07T04:24:23;97271.59;;;-3.93;97.87
1832;BME280;1680;48.106;11.708;2023-02-07T04:26:50;97268.94;;;-3.92;97.23
1832;BME280;1680;48.106;11.708;2023-02-07T04:29:17;97264.63;;;-3.91;96.82
1832;BME280;1680;48.106;11.708;2023-02-07T04:31:45;97263.38;;;-3.98;96.42
1832;BME280;1680;48.106;11.708;2023-02-07T04:34:12;97268.28;;;-3.95;96.78
1832;BME280;1680;48.106;11.708;2023-02-07T04:36:39;97258.78;;;-3.93;96.81
1832;BME280;1680;48.106;11.708;2023-02-07T04:39:06;97251.47;;;-3.99;96.79
1832;BME280;1680;48.106;11.708;2023-02-07T04:41:36;97235.72;;;-4.07;96.63
1832;BME280;1680;48.106;11.708;2023-02-07T04:44:04;97239.94;;;-4.06;96.67
1832;BME280;1680;48.106;11.708;2023-02-07T04:46:31;97247.63;;;-4.06;96.32
1832;BME280;1680;48.106;11.708;2023-02-07T04:48:59;97253.75;;;-4.09;96.00
1832;BME280;1680;48.106;11.708;2023-02-07T04:51:26;97238.84;;;-4.02;95.70
1832;BME280;1680;48.106;11.708;2023-02-07T04:53:53;97253.59;;;-4.06;95.96
1832;BME280;1680;48.106;11.708;2023-02-07T04:56:21;97255.69;;;-4.12;95.88
1832;BME280;1680;48.106;11.708;2023-02-07T04:58:50;97247.56;;;-4.05;95.90
1832;BME280;1680;48.106;11.708;2023-02-07T05:01:17;97243.69;;;-4.12;96.30
1832;BME280;1680;48.106;11.708;2023-02-07T05:03:44;97245.63;;;-4.15;95.68
1832;BME280;1680;48.106;11.708;2023-02-07T05:06:11;97252.13;;;-4.24;95.61
1832;BME280;1680;48.106;11.708;2023-02-07T05:08:39;97249.63;;;-4.25;95.83
1832;BME280;1680;48.106;11.708;2023-02-07T05:11:06;97245.25;;;-4.23;95.96
1832;BME280;1680;48.106;11.708;2023-02-07T05:13:33;97249.44;;;-4.22;95.42
1832;BME280;1680;48.106;11.708;2023-02-07T05:16:03;97255.88;;;-4.29;95.25
1832;BME280;1680;48.106;11.708;2023-02-07T05:18:30;97258.44;;;-4.29;96.14
1832;BME280;1680;48.106;11.708;2023-02-07T05:20:58;97259.41;;;-4.32;96.85
1832;BME280;1680;48.106;11.708;2023-02-07T05:23:26;97256.78;;;-4.30;97.66
1832;BME280;1680;48.106;11.708;2023-02-07T05:25:53;97257.31;;;-4.25;97.53
1832;BME280;1680;48.106;11.708;2023-02-07T05:28:21;97256.41;;;-4.24;98.43
1832;BME280;1680;48.106;11.708;2023-02-07T05:30:51;97263.00;;;-4.20;98.46
1832;BME280;1680;48.106;11.708;2023-02-07T05:33:20;97274.88;;;-4.19;99.07
1832;BME280;1680;48.106;11.708;2023-02-07T05:35:47;97273.69;;;-4.14;98.63
1832;BME280;1680;48.106;11.708;2023-02-07T05:38:17;97285.31;;;-4.08;98.87
1832;BME280;1680;48.106;11.708;2023-02-07T05:40:45;97290.63;;;-3.97;98.24
1832;BME280;1680;48.106;11.708;2023-02-07T05:43:13;97294.47;;;-4.04;98.47
1832;BME280;1680;48.106;11.708;2023-02-07T05:45:40;97286.44;;;-3.98;98.04
1832;BME280;1680;48.106;11.708;2023-02-07T05:48:10;97273.78;;;-4.01;97.72
1832;BME280;1680;48.106;11.708;2023-02-07T05:50:39;97279.28;;;-4.07;97.59
1832;BME280;1680;48.106;11.708;2023-02-07T05:53:07;97282.13;;;-4.12;97.84
1832;BME280;1680;48.106;11.708;2023-02-07T05:55:34;97278.47;;;-4.08;98.06
1832;BME280;1680;48.106;11.708;2023-02-07T05:58:01;97284.56;;;-4.10;97.50
1832;BME280;1680;48.106;11.708;2023-02-07T06:00:29;97279.66;;;-4.13;97.05
1832;BME280;1680;48.106;11.708;2023-02-07T06:02:56;97273.06;;;-4.17;96.84
1832;BME280;1680;48.106;11.708;2023-02-07T06:05:23;97269.13;;;-4.23;97.37
1832;BME280;1680;48.106;11.708;2023-02-07T06:07:57;97275.78;;;-4.20;97.16
1832;BME280;1680;48.106;11.708;2023-02-07T06:10:24;97283.47;;;-4.20;97.34
1832;BME280;1680;48.106;11.708;2023-02-07T06:12:51;97286.78;;;-4.32;97.73
1832;BME280;1680;48.106;11.708;2023-02-07T06:15:19;97291.88;;;-4.32;97.59
1832;BME280;1680;48.106;11.708;2023-02-07T06:17:46;97298.94;;;-4.36;98.04
1832;BME280;1680;48.106;11.708;2023-02-07T06:20:14;97287.50;;;-4.30;98.16
1832;BME280;1680;48.106;11.708;2023-02-07T06:22:41;97297.75;;;-4.30;98.32
1832;BME280;1680;48.106;11.708;2023-02-07T06:25:10;97288.94;;;-4.26;99.10
1832;BME280;1680;48.106;11.708;2023-02-07T06:27:38;97295.53;;;-4.22;98.01
1832;BME280;1680;48.106;11.708;2023-02-07T06:30:06;97294.75;;;-4.23;97.14
1832;BME280;1680;48.106;11.708;2023-02-07T06:32:34;97299.19;;;-4.26;97.21
1832;BME280;1680;48.106;11.708;2023-02-07T06:35:02;97299.28;;;-4.28;96.84
1832;BME280;1680;48.106;11.708;2023-02-07T06:37:31;97309.81;;;-4.32;97.15
1832;BME280;1680;48.106;11.708;2023-02-07T06:39:58;97292.63;;;-4.30;97.48
1832;BME280;1680;48.106;11.708;2023-02-07T06:42:27;97291.50;;;-4.26;96.80
1832;BME280;1680;48.106;11.708;2023-02-07T06:44:55;97301.56;;;-4.37;96.44
1832;BME280;1680;48.106;11.708;2023-02-07T06:47:22;97299.75;;;-4.35;96.96
1832;BME280;1680;48.106;11.708;2023-02-07T06:49:49;97305.88;;;-4.38;97.56
1832;BME280;1680;48.106;11.708;2023-02-07T06:52:17;97306.81;;;-4.25;96.96
1832;BME280;1680;48.106;11.708;2023-02-07T06:54:45;97310.91;;;-4.36;97.29
1832;BME280;1680;48.106;11.708;2023-02-07T06:57:12;97313.09;;;-4.30;97.68
1832;BME280;1680;48.106;11.708;2023-02-07T06:59:41;97300.47;;;-4.33;97.79
1832;BME280;1680;48.106;11.708;2023-02-07T07:02:09;97308.00;;;-4.02;100.00
1832;BME280;1680;48.106;11.708;2023-02-07T07:04:38;97302.50;;;-4.10;100.00
1832;BME280;1680;48.106;11.708;2023-02-07T07:07:05;97308.81;;;-4.16;98.59
1832;BME280;1680;48.106;11.708;2023-02-07T07:09:32;97315.75;;;-4.18;97.50
1832;BME280;1680;48.106;11.708;2023-02-07T07:12:00;97309.47;;;-4.12;97.76
1832;BME280;1680;48.106;11.708;2023-02-07T07:14:29;97312.22;;;-4.01;97.08
1832;BME280;1680;48.106;11.708;2023-02-07T07:16:58;97308.47;;;-4.10;96.82
1832;BME280;1680;48.106;11.708;2023-02-07T07:19:25;97313.47;;;-4.08;96.87
1832;BME280;1680;48.106;11.708;2023-02-07T07:21:53;97304.88;;;-4.07;96.36
1832;BME280;1680;48.106;11.708;2023-02-07T07:24:20;97302.94;;;-4.18;96.42
1832;BME280;1680;48.106;11.708;2023-02-07T07:26:48;97321.38;;;-3.97;96.83
1832;BME280;1680;48.106;11.708;2023-02-07T07:29:16;97311.84;;;-3.95;96.30
1832;BME280;1680;48.106;11.708;2023-02-07T07:31:43;97316.78;;;-3.92;96.48
1832;BME280;1680;48.106;11.708;2023-02-07T07:34:12;97323.19;;;-3.85;95.78
1832;BME280;1680;48.106;11.708;2023-02-07T07:36:39;97240.97;;;-4.37;96.26
1832;BME280;1680;48.106;11.708;2023-02-07T07:39:07;97321.91;;;-3.79;95.56
1832;BME280;1680;48.106;11.708;2023-02-07T07:41:35;97307.66;;;-3.83;95.96
1832;BME280;1680;48.106;11.708;2023-02-07T07:44:02;97313.94;;;-3.74;96.40
1832;BME280;1680;48.106;11.708;2023-02-07T07:46:30;97306.81;;;-3.69;95.73
1832;BME280;1680;48.106;11.708;2023-02-07T07:48:57;97243.81;;;-4.13;95.93
1832;BME280;1680;48.106;11.708;2023-02-07T07:51:26;97312.19;;;-3.60;95.84
1832;BME280;1680;48.106;11.708;2023-02-07T07:53:53;97304.84;;;-3.52;96.45
1832;BME280;1680;48.106;11.708;2023-02-07T07:56:20;97296.41;;;-3.40;95.90
1832;BME280;1680;48.106;11.708;2023-02-07T07:58:48;97290.38;;;-3.39;95.62
1832;BME280;1680;48.106;11.708;2023-02-07T08:01:15;97285.03;;;-3.36;95.69
1832;BME280;1680;48.106;11.708;2023-02-07T08:03:42;97205.84;;;-3.81;95.62
1832;BME280;1680;48.106;11.708;2023-02-07T08:06:10;97284.91;;;-3.20;95.63
1832;BME280;1680;48.106;11.708;2023-02-07T08:08:38;97297.31;;;-3.00;94.53
1832;BME280;1680;48.106;11.708;2023-02-07T08:11:08;97296.84;;;-3.07;94.84
1832;BME280;1680;48.106;11.708;2023-02-07T08:13:36;97282.84;;;-2.89;93.97
1832;BME280;1680;48.106;11.708;2023-02-07T08:16:04;97278.88;;;-2.93;94.03
1832;BME280;1680;48.106;11.708;2023-02-07T08:18:33;97295.63;;;-2.75;94.69
1832;BME280;1680;48.106;11.708;2023-02-07T08:21:01;97291.41;;;-2.76;95.26
1832;BME280;1680;48.106;11.708;2023-02-07T08:23:28;97297.41;;;-2.63;94.77
1832;BME280;1680;48.106;11.708;2023-02-07T08:25:57;97290.94;;;-2.56;94.06
1832;BME280;1680;48.106;11.708;2023-02-07T08:28:26;97297.03;;;-2.45;94.91
1832;BME280;1680;48.106;11.708;2023-02-07T08:30:53;97293.53;;;-2.31;94.04
1832;BME280;1680;48.106;11.708;2023-02-07T08:33:21;97290.88;;;-2.30;94.67
1832;BME280;1680;48.106;11.708;2023-02-07T08:35:49;97297.28;;;-1.98;94.74
1832;BME280;1680;48.106;11.708;2023-02-07T08:38:16;97300.16;;;-2.02;93.15
1832;BME280;1680;48.106;11.708;2023-02-07T08:40:44;97300.97;;;-1.90;92.97
1832;BME280;1680;48.106;11.708;2023-02-07T08:43:13;97297.66;;;-1.79;93.02
1832;BME280;1680;48.106;11.708;2023-02-07T08:45:44;97292.94;;;-1.73;92.33
1832;BME280;1680;48.106;11.708;2023-02-07T08:48:12;97295.16;;;-1.56;91.71
1832;BME280;1680;48.106;11.708;2023-02-07T08:50:39;97307.28;;;-1.45;91.37
1832;BME280;1680;48.106;11.708;2023-02-07T08:53:07;97306.66;;;-1.49;91.33
1832;BME280;1680;48.106;11.708;2023-02-07T08:55:34;97306.94;;;-1.41;91.59
1832;BME280;1680;48.106;11.708;2023-02-07T08:58:01;97312.19;;;-1.30;91.83
1832;BME280;1680;48.106;11.708;2023-02-07T09:00:30;97311.13;;;-1.15;90.50
1832;BME280;1680;48.106;11.708;2023-02-07T09:02:59;97305.97;;;-1.15;90.83
1832;BME280;1680;48.106;11.708;2023-02-07T09:05:28;97306.94;;;-1.05;90.37
1832;BME280;1680;48.106;11.708;2023-02-07T09:07:58;97294.84;;;-0.92;89.90
1832;BME280;1680;48.106;11.708;2023-02-07T09:10:25;97305.81;;;-0.78;88.89
1832;BME280;1680;48.106;11.708;2023-02-07T09:12:52;97301.25;;;-0.74;88.42
1832;BME280;1680;48.106;11.708;2023-02-07T09:15:20;97302.06;;;-0.74;89.03
1832;BME280;1680;48.106;11.708;2023-02-07T09:17:49;97315.50;;;-0.81;89.63
1832;BME280;1680;48.106;11.708;2023-02-07T09:20:16;97325.69;;;-0.80;88.98
1832;BME280;1680;48.106;11.708;2023-02-07T09:22:44;97318.94;;;-0.46;89.83
1832;BME280;1680;48.106;11.708;2023-02-07T09:25:28;97323.84;;;-0.54;88.11
1832;BME280;1680;48.106;11.708;2023-02-07T09:27:56;97322.72;;;-0.39;87.61
1832;BME280;1680;48.106;11.708;2023-02-07T09:30:23;97319.00;;;-0.59;87.61
1832;BME280;1680;48.106;11.708;2023-02-07T09:32:52;97314.84;;;-0.72;87.03
1832;BME280;1680;48.106;11.708;2023-02-07T09:35:19;97255.63;;;-0.96;87.25
1832;BME280;1680;48.106;11.708;2023-02-07T09:37:46;97324.09;;;-0.70;87.61
1832;BME280;1680;48.106;11.708;2023-02-07T09:40:15;97321.56;;;-0.59;86.89
1832;BME280;1680;48.106;11.708;2023-02-07T09:42:50;97329.91;;;-0.55;87.15
1832;BME280;1680;48.106;11.708;2023-02-07T09:45:24;97325.56;;;-0.55;87.08
1832;BME280;1680;48.106;11.708;2023-02-07T09:48:01;97324.25;;;-0.60;88.43
1832;BME280;1680;48.106;11.708;2023-02-07T09:50:34;97319.66;;;-0.44;86.67
1832;BME280;1680;48.106;11.708;2023-02-07T09:53:09;97260.44;;;-0.91;87.23
1832;BME280;1680;48.106;11.708;2023-02-07T09:55:45;97303.97;;;-0.41;86.26
1832;BME280;1680;48.106;11.708;2023-02-07T09:58:19;97301.53;;;-0.32;85.85
1832;BME280;1680;48.106;11.708;2023-02-07T10:00:55;97317.16;;;-0.11;85.63
1832;BME280;1680;48.106;11.708;2023-02-07T10:03:25;97313.38;;;-0.18;86.87
1832;BME280;1680;48.106;11.708;2023-02-07T10:05:57;97324.94;;;0.10;84.79
1832;BME280;1680;48.106;11.708;2023-02-07T10:08:26;97326.63;;;0.22;84.54
1832;BME280;1680;48.106;11.708;2023-02-07T10:11:08;97324.03;;;0.22;83.09
1832;BME280;1680;48.106;11.708;2023-02-07T10:13:58;97323.91;;;0.13;81.95
1832;BME280;1680;48.106;11.708;2023-02-07T10:16:49;97253.88;;;-0.15;82.88
1832;BME280;1680;48.106;11.708;2023-02-07T10:19:30;97313.13;;;0.30;83.59
1832;BME280;1680;48.106;11.708;2023-02-07T10:22:10;97300.81;;;0.44;82.64
1832;BME280;1680;48.106;11.708;2023-02-07T10:28:03;97244.28;;;0.08;81.97
1832;BME280;1680;48.106;11.708;2023-02-07T10:30:35;97237.50;;;0.18;80.03
1832;BME280;1680;48.106;11.708;2023-02-07T10:33:13;97299.84;;;0.56;80.07
1832;BME280;1680;48.106;11.708;2023-02-07T10:35:44;97300.81;;;0.44;80.48
1832;BME280;1680;48.106;11.708;2023-02-07T10:38:21;97305.72;;;0.58;80.18
1832;BME280;1680;48.106;11.708;2023-02-07T10:40:55;97308.56;;;0.66;77.93
1832;BME280;1680;48.106;11.708;2023-02-07T10:43:27;97286.00;;;0.68;78.74
1832;BME280;1680;48.106;11.708;2023-02-07T10:45:59;97297.81;;;0.93;77.76
1832;BME280;1680;48.106;11.708;2023-02-07T10:48:27;97303.56;;;0.96;77.77
1832;BME280;1680;48.106;11.708;2023-02-07T10:50:58;97311.53;;;1.04;77.42
1832;BME280;1680;48.106;11.708;2023-02-07T10:53:41;97226.97;;;0.75;74.21
1832;BME280;1680;48.106;11.708;2023-02-07T10:56:13;97314.06;;;1.26;73.07
1832;BME280;1680;48.106;11.708;2023-02-07T10:58:42;97299.97;;;1.19;71.34
1832;BME280;1680;48.106;11.708;2023-02-07T11:01:17;97306.66;;;1.21;73.28
1832;BME280;1680;48.106;11.708;2023-02-07T11:03:45;97312.56;;;1.44;72.88
1832;BME280;1680;48.106;11.708;2023-02-07T11:06:15;97308.31;;;1.54;71.53
1832;BME280;1680;48.106;11.708;2023-02-07T11:08:49;97317.13;;;1.51;70.01
1832;BME280;1680;48.106;11.708;2023-02-07T11:11:24;97316.06;;;1.54;69.69
1832;BME280;1680;48.106;11.708;2023-02-07T11:13:52;97306.56;;;1.75;70.01
1832;BME280;1680;48.106;11.708;2023-02-07T11:16:22;97266.03;;;1.44;73.04
1832;BME280;1680;48.106;11.708;2023-02-07T11:18:55;97311.38;;;1.79;72.90
1832;BME280;1680;48.106;11.708;2023-02-07T11:21:27;97302.59;;;1.71;73.43
1832;BME280;1680;48.106;11.708;2023-02-07T11:23:58;97292.28;;;1.80;73.88
1832;BME280;1680;48.106;11.708;2023-02-07T11:26:31;97306.00;;;1.91;72.94
1832;BME280;1680;48.106;11.708;2023-02-07T11:29:06;97299.78;;;1.94;72.84
1832;BME280;1680;48.106;11.708;2023-02-07T11:31:38;97297.28;;;1.92;72.42
1832;BME280;1680;48.106;11.708;2023-02-07T11:34:08;97290.31;;;1.84;72.75
1832;BME280;1680;48.106;11.708;2023-02-07T11:36:37;97288.22;;;1.78;72.79
1832;BME280;1680;48.106;11.708;2023-02-07T11:39:14;97285.91;;;3.13;91.66
1832;BME280;1680;48.106;11.708;2023-02-07T11:41:52;97289.50;;;2.73;65.58
1832;BME280;1680;48.106;11.708;2023-02-07T11:44:24;97283.69;;;2.50;63.42
1832;BME280;1680;48.106;11.708;2023-02-07T11:46:53;97275.88;;;2.31;62.78
1832;BME280;1680;48.106;11.708;2023-02-07T11:49:25;97275.78;;;2.42;58.92
1832;BME280;1680;48.106;11.708;2023-02-07T11:51:57;97270.81;;;2.30;58.86
1832;BME280;1680;48.106;11.708;2023-02-07T11:54:25;97267.47;;;2.18;59.09
1832;BME280;1680;48.106;11.708;2023-02-07T11:57:00;97267.88;;;2.14;58.62
1832;BME280;1680;48.106;11.708;2023-02-07T11:59:28;97269.81;;;2.21;58.66
1832;BME280;1680;48.106;11.708;2023-02-07T12:01:58;97258.50;;;2.22;59.33
1832;BME280;1680;48.106;11.708;2023-02-07T12:04:27;97256.06;;;2.21;59.68
1832;BME280;1680;48.106;11.708;2023-02-07T12:07:00;97256.38;;;2.27;59.12
1832;BME280;1680;48.106;11.708;2023-02-07T12:09:33;97246.00;;;2.27;59.60
1832;BME280;1680;48.106;11.708;2023-02-07T12:12:10;97249.28;;;2.29;58.54
1832;BME280;1680;48.106;11.708;2023-02-07T12:14:45;97248.84;;;2.24;59.01
1832;BME280;1680;48.106;11.708;2023-02-07T12:17:26;97249.28;;;2.29;60.88
1832;BME280;1680;48.106;11.708;2023-02-07T12:20:02;97241.94;;;2.34;63.09
1832;BME280;1680;48.106;11.708;2023-02-07T12:22:39;97236.50;;;2.37;62.48
1832;BME280;1680;48.106;11.708;2023-02-07T12:25:17;97247.13;;;2.34;62.50
1832;BME280;1680;48.106;11.708;2023-02-07T12:27:47;97240.06;;;2.46;59.31
1832;BME280;1680;48.106;11.708;2023-02-07T12:30:21;97241.25;;;2.62;59.42
1832;BME280;1680;48.106;11.708;2023-02-07T12:32:58;97242.00;;;2.53;59.82
1832;BME280;1680;48.106;11.708;2023-02-07T12:35:30;97233.91;;;2.37;59.91
1832;BME280;1680;48.106;11.708;2023-02-07T12:38:11;97233.63;;;2.31;61.38
1832;BME280;1680;48.106;11.708;2023-02-07T12:40:43;97225.63;;;2.43;58.35
1832;BME280;1680;48.106;11.708;2023-02-07T12:43:18;97178.91;;;2.05;58.54
1832;BME280;1680;48.106;11.708;2023-02-07T12:46:09;97221.31;;;2.53;56.69
1832;BME280;1680;48.106;11.708;2023-02-07T12:51:47;97216.94;;;2.44;52.76
1832;BME280;1680;48.106;11.708;2023-02-07T12:54:31;97217.22;;;2.51;53.84
1832;BME280;1680;48.106;11.708;2023-02-07T12:57:07;97213.38;;;2.45;54.06
1832;BME280;1680;48.106;11.708;2023-02-07T12:59:44;97202.22;;;2.54;53.06
1832;BME280;1680;48.106;11.708;2023-02-07T13:02:33;97202.28;;;2.73;53.84
1832;BME280;1680;48.106;11.708;2023-02-07T13:08:21;97205.97;;;2.89;53.00
1832;BME280;1680;48.106;11.708;2023-02-07T13:10:59;97216.31;;;2.80;53.22
1832;BME280;1680;48.106;11.708;2023-02-07T13:13:34;97216.63;;;2.47;52.35
1832;BME280;1680;48.106;11.708;2023-02-07T13:16:09;97213.16;;;2.67;51.28
1832;BME280;1680;48.106;11.708;2023-02-07T13:18:45;97209.22;;;2.73;51.46
1832;BME280;1680;48.106;11.708;2023-02-07T13:21:19;97209.06;;;2.65;52.97
1832;BME280;1680;48.106;11.708;2023-02-07T13:23:48;97209.72;;;2.57;53.73
1832;BME280;1680;48.106;11.708;2023-02-07T13:26:19;97156.13;;;2.29;52.38
1832;BME280;1680;48.106;11.708;2023-02-07T13:28:53;97226.50;;;2.63;51.86
1832;BME280;1680;48.106;11.708;2023-02-07T13:31:23;97207.72;;;2.70;51.68
1832;BME280;1680;48.106;11.708;2023-02-07T13:33:53;97205.66;;;2.64;46.16
1832;BME280;1680;48.106;11.708;2023-02-07T13:36:34;97153.94;;;2.34;47.97
1832;BME280;1680;48.106;11.708;2023-02-07T13:39:08;97213.16;;;2.67;48.82
1832;BME280;1680;48.106;11.708;2023-02-07T13:41:50;97220.75;;;2.50;49.34
1832;BME280;1680;48.106;11.708;2023-02-07T13:44:23;97217.25;;;2.60;49.55
1832;BME280;1680;48.106;11.708;2023-02-07T13:47:13;97220.56;;;2.42;49.72
1832;BME280;1680;48.106;11.708;2023-02-07T13:49:45;97220.09;;;2.57;50.47
1832;BME280;1680;48.106;11.708;2023-02-07T13:52:20;97216.69;;;2.66;50.42